sensor_id;sensor_type;location;lat;lon;timestamp;P1;durP1;ratioP1;P2;durP2;ratioP2
35969;SDS011;22448;51.298;6.430;2023-05-10T00:00:40;58.28;;;32.40;;
35969;SDS011;22448;51.298;6.430;2023-05-10T00:03:07;54.97;;;32.72;;
35969;SDS011;22448;51.298;6.430;2023-05-10T00:05:34;58.10;;;31.65;;
35969;SDS011;22448;51.298;6.430;2023-05-10T00:08:01;52.38;;;29.63;;
35969;SDS011;22448;51.298;6.430;2023-05-10T00:10:28;51.80;;;30.50;;
35969;SDS011;22448;51.298;6.430;2023-05-10T00:12:55;54.22;;;30.67;;
35969;SDS011;22448;51.298;6.430;2023-05-10T00:15:22;57.17;;;31.02;;
35969;SDS011;22448;51.298;6.430;2023-05-10T00:17:49;56.40;;;32.38;;
35969;SDS011;22448;51.298;6.430;2023-05-10T00:20:16;57.72;;;32.22;;
35969;SDS011;22448;51.298;6.430;2023-05-10T00:22:43;55.97;;;31.77;;
35969;SDS011;22448;51.298;6.430;2023-05-10T00:25:10;56.70;;;32.03;;
35969;SDS011;22448;51.298;6.430;2023-05-10T00:27:37;53.10;;;31.25;;
35969;SDS011;22448;51.298;6.430;2023-05-10T00:30:05;56.88;;;31.30;;
35969;SDS011;22448;51.298;6.430;2023-05-10T00:32:34;59.83;;;29.90;;
35969;SDS011;22448;51.298;6.430;2023-05-10T00:35:01;60.53;;;31.70;;
35969;SDS011;22448;51.298;6.430;2023-05-10T00:37:28;64.78;;;31.58;;
35969;SDS011;22448;51.298;6.430;2023-05-10T00:39:55;59.85;;;31.33;;
35969;SDS011;22448;51.298;6.430;2023-05-10T00:42:22;62.83;;;30.10;;
35969;SDS011;22448;51.298;6.430;2023-05-10T00:44:51;58.85;;;30.30;;
35969;SDS011;22448;51.298;6.430;2023-05-10T00:47:18;59.42;;;31.33;;
35969;SDS011;22448;51.298;6.430;2023-05-10T00:49:45;57.80;;;29.63;;
35969;SDS011;22448;51.298;6.430;2023-05-10T00:52:12;59.80;;;30.08;;
35969;SDS011;22448;51.298;6.430;2023-05-10T00:54:40;65.07;;;30.65;;
35969;SDS011;22448;51.298;6.430;2023-05-10T00:57:07;57.95;;;28.95;;
35969;SDS011;22448;51.298;6.430;2023-05-10T00:59:34;56.72;;;26.75;;
35969;SDS011;22448;51.298;6.430;2023-05-10T01:02:01;51.30;;;26.98;;
35969;SDS011;22448;51.298;6.430;2023-05-10T01:04:28;53.75;;;28.38;;
35969;SDS011;22448;51.298;6.430;2023-05-10T01:06:56;46.53;;;24.73;;
35969;SDS011;22448;51.298;6.430;2023-05-10T01:09:24;48.05;;;24.27;;
35969;SDS011;22448;51.298;6.430;2023-05-10T01:11:52;41.95;;;22.83;;
35969;SDS011;22448;51.298;6.430;2023-05-10T01:14:21;42.60;;;22.20;;
35969;SDS011;22448;51.298;6.430;2023-05-10T01:16:49;35.63;;;21.00;;
35969;SDS011;22448;51.298;6.430;2023-05-10T01:19:20;42.45;;;20.90;;
35969;SDS011;22448;51.298;6.430;2023-05-10T01:21:58;38.95;;;20.92;;
35969;SDS011;22448;51.298;6.430;2023-05-10T01:38:37;31.30;;;16.90;;
35969;SDS011;22448;51.298;6.430;2023-05-10T01:41:18;31.85;;;17.05;;
35969;SDS011;22448;51.298;6.430;2023-05-10T01:46:58;33.07;;;18.43;;
35969;SDS011;22448;51.298;6.430;2023-05-10T01:49:34;30.63;;;17.98;;
35969;SDS011;22448;51.298;6.430;2023-05-10T01:52:08;37.78;;;18.98;;
35969;SDS011;22448;51.298;6.430;2023-05-10T01:54:38;33.63;;;19.23;;
35969;SDS011;22448;51.298;6.430;2023-05-10T01:57:11;36.70;;;19.35;;
35969;SDS011;22448;51.298;6.430;2023-05-10T01:59:40;30.65;;;18.55;;
35969;SDS011;22448;51.298;6.430;2023-05-10T02:02:11;35.85;;;19.38;;
35969;SDS011;22448;51.298;6.430;2023-05-10T02:04:40;33.63;;;18.90;;
35969;SDS011;22448;51.298;6.430;2023-05-10T02:07:09;35.80;;;19.55;;
35969;SDS011;22448;51.298;6.430;2023-05-10T02:09:37;35.90;;;20.20;;
35969;SDS011;22448;51.298;6.430;2023-05-10T02:12:05;38.88;;;20.63;;
35969;SDS011;22448;51.298;6.430;2023-05-10T02:14:35;35.85;;;21.15;;
35969;SDS011;22448;51.298;6.430;2023-05-10T02:17:04;37.22;;;19.17;;
35969;SDS011;22448;51.298;6.430;2023-05-10T02:19:34;45.88;;;20.90;;
35969;SDS011;22448;51.298;6.430;2023-05-10T02:22:03;36.08;;;18.52;;
35969;SDS011;22448;51.298;6.430;2023-05-10T02:24:32;34.15;;;19.45;;
35969;SDS011;22448;51.298;6.430;2023-05-10T02:27:01;38.55;;;20.27;;
35969;SDS011;22448;51.298;6.430;2023-05-10T02:29:29;37.10;;;19.80;;
35969;SDS011;22448;51.298;6.430;2023-05-10T02:31:58;42.70;;;20.48;;
35969;SDS011;22448;51.298;6.430;2023-05-10T02:34:26;42.83;;;20.98;;
35969;SDS011;22448;51.298;6.430;2023-05-10T02:36:54;42.25;;;21.00;;
35969;SDS011;22448;51.298;6.430;2023-05-10T02:39:22;49.40;;;22.05;;
35969;SDS011;22448;51.298;6.430;2023-05-10T02:41:52;44.60;;;22.85;;
35969;SDS011;22448;51.298;6.430;2023-05-10T02:44:21;42.35;;;22.70;;
35969;SDS011;22448;51.298;6.430;2023-05-10T02:46:50;48.88;;;24.60;;
35969;SDS011;22448;51.298;6.430;2023-05-10T02:49:17;49.17;;;24.25;;
35969;SDS011;22448;51.298;6.430;2023-05-10T02:51:53;48.97;;;25.17;;
35969;SDS011;22448;51.298;6.430;2023-05-10T02:54:27;53.75;;;24.30;;
35969;SDS011;22448;51.298;6.430;2023-05-10T02:56:58;54.55;;;25.05;;
35969;SDS011;22448;51.298;6.430;2023-05-10T02:59:29;53.53;;;25.58;;
35969;SDS011;22448;51.298;6.430;2023-05-10T03:01:56;51.10;;;26.17;;
35969;SDS011;22448;51.298;6.430;2023-05-10T03:04:23;56.10;;;26.60;;
35969;SDS011;22448;51.298;6.430;2023-05-10T03:06:53;57.22;;;26.83;;
35969;SDS011;22448;51.298;6.430;2023-05-10T03:09:20;59.20;;;28.05;;
35969;SDS011;22448;51.298;6.430;2023-05-10T03:14:42;59.08;;;27.48;;
35969;SDS011;22448;51.298;6.430;2023-05-10T03:17:23;59.45;;;29.40;;
35969;SDS011;22448;51.298;6.430;2023-05-10T03:22:37;60.92;;;28.23;;
35969;SDS011;22448;51.298;6.430;2023-05-10T03:25:08;66.72;;;28.70;;
35969;SDS011;22448;51.298;6.430;2023-05-10T03:27:40;60.92;;;30.10;;
35969;SDS011;22448;51.298;6.430;2023-05-10T03:30:10;69.60;;;31.67;;
35969;SDS011;22448;51.298;6.430;2023-05-10T03:32:38;65.35;;;32.20;;
35969;SDS011;22448;51.298;6.430;2023-05-10T03:35:09;73.40;;;32.17;;
35969;SDS011;22448;51.298;6.430;2023-05-10T03:37:38;82.25;;;35.28;;
35969;SDS011;22448;51.298;6.430;2023-05-10T03:40:05;78.70;;;35.00;;
35969;SDS011;22448;51.298;6.430;2023-05-10T03:42:35;76.45;;;34.88;;
35969;SDS011;22448;51.298;6.430;2023-05-10T03:45:02;96.22;;;37.85;;
35969;SDS011;22448;51.298;6.430;2023-05-10T03:47:29;94.88;;;37.55;;
35969;SDS011;22448;51.298;6.430;2023-05-10T03:49:57;98.57;;;40.25;;
35969;SDS011;22448;51.298;6.430;2023-05-10T03:52:24;98.72;;;41.80;;
35969;SDS011;22448;51.298;6.430;2023-05-10T03:54:51;102.22;;;44.03;;
35969;SDS011;22448;51.298;6.430;2023-05-10T03:57:18;114.90;;;46.33;;
35969;SDS011;22448;51.298;6.430;2023-05-10T03:59:45;120.60;;;46.85;;
35969;SDS011;22448;51.298;6.430;2023-05-10T04:02:12;122.70;;;48.28;;
35969;SDS011;22448;51.298;6.430;2023-05-10T04:04:39;120.60;;;48.33;;
35969;SDS011;22448;51.298;6.430;2023-05-10T04:07:06;120.35;;;47.80;;
35969;SDS011;22448;51.298;6.430;2023-05-10T04:09:33;126.93;;;47.90;;
35969;SDS011;22448;51.298;6.430;2023-05-10T04:12:00;135.65;;;51.03;;
35969;SDS011;22448;51.298;6.430;2023-05-10T04:14:28;123.82;;;49.35;;
35969;SDS011;22448;51.298;6.430;2023-05-10T04:16:55;135.38;;;50.13;;
35969;SDS011;22448;51.298;6.430;2023-05-10T04:19:22;121.00;;;47.78;;
35969;SDS011;22448;51.298;6.430;2023-05-10T04:21:50;134.40;;;51.35;;
35969;SDS011;22448;51.298;6.430;2023-05-10T04:24:17;123.53;;;49.65;;
35969;SDS011;22448;51.298;6.430;2023-05-10T04:26:44;126.05;;;50.80;;
35969;SDS011;22448;51.298;6.430;2023-05-10T04:29:11;130.63;;;49.65;;
35969;SDS011;22448;51.298;6.430;2023-05-10T04:31:38;137.13;;;50.78;;
35969;SDS011;22448;51.298;6.430;2023-05-10T04:34:05;133.60;;;52.10;;
35969;SDS011;22448;51.298;6.430;2023-05-10T04:36:32;146.13;;;52.42;;
35969;SDS011;22448;51.298;6.430;2023-05-10T04:39:02;133.65;;;52.17;;
35969;SDS011;22448;51.298;6.430;2023-05-10T04:41:29;134.05;;;52.40;;
35969;SDS011;22448;51.298;6.430;2023-05-10T04:43:56;132.82;;;51.40;;
35969;SDS011;22448;51.298;6.430;2023-05-10T04:46:23;125.57;;;50.55;;
35969;SDS011;22448;51.298;6.430;2023-05-10T04:48:51;122.63;;;49.30;;
35969;SDS011;22448;51.298;6.430;2023-05-10T04:51:18;127.97;;;50.83;;
35969;SDS011;22448;51.298;6.430;2023-05-10T04:53:45;122.72;;;51.08;;
35969;SDS011;22448;51.298;6.430;2023-05-10T04:56:30;118.88;;;50.35;;
35969;SDS011;22448;51.298;6.430;2023-05-10T04:58:57;123.82;;;51.28;;
35969;SDS011;22448;51.298;6.430;2023-05-10T05:01:24;108.85;;;48.60;;
35969;SDS011;22448;51.298;6.430;2023-05-10T05:03:51;119.90;;;49.65;;
35969;SDS011;22448;51.298;6.430;2023-05-10T05:06:19;117.00;;;47.70;;
35969;SDS011;22448;51.298;6.430;2023-05-10T05:08:47;105.13;;;47.80;;
35969;SDS011;22448;51.298;6.430;2023-05-10T05:11:16;115.85;;;46.03;;
35969;SDS011;22448;51.298;6.430;2023-05-10T05:13:43;110.95;;;47.55;;
35969;SDS011;22448;51.298;6.430;2023-05-10T05:16:10;104.15;;;46.58;;
35969;SDS011;22448;51.298;6.430;2023-05-10T05:18:38;114.55;;;47.38;;
35969;SDS011;22448;51.298;6.430;2023-05-10T05:21:15;131.10;;;48.53;;
35969;SDS011;22448;51.298;6.430;2023-05-10T05:23:43;138.45;;;51.30;;
35969;SDS011;22448;51.298;6.430;2023-05-10T05:26:10;138.07;;;50.72;;
35969;SDS011;22448;51.298;6.430;2023-05-10T05:28:37;147.30;;;53.70;;
35969;SDS011;22448;51.298;6.430;2023-05-10T05:31:05;143.98;;;53.22;;
35969;SDS011;22448;51.298;6.430;2023-05-10T05:33:33;150.88;;;53.33;;
35969;SDS011;22448;51.298;6.430;2023-05-10T05:36:01;156.30;;;57.00;;
35969;SDS011;22448;51.298;6.430;2023-05-10T05:38:30;155.77;;;54.58;;
35969;SDS011;22448;51.298;6.430;2023-05-10T05:40:57;167.25;;;57.53;;
35969;SDS011;22448;51.298;6.430;2023-05-10T05:43:24;154.20;;;53.92;;
35969;SDS011;22448;51.298;6.430;2023-05-10T05:45:54;155.73;;;52.58;;
35969;SDS011;22448;51.298;6.430;2023-05-10T05:48:22;164.40;;;54.88;;
35969;SDS011;22448;51.298;6.430;2023-05-10T05:50:49;151.98;;;53.78;;
35969;SDS011;22448;51.298;6.430;2023-05-10T05:53:16;152.60;;;52.72;;
35969;SDS011;22448;51.298;6.430;2023-05-10T05:55:56;164.82;;;53.63;;
35969;SDS011;22448;51.298;6.430;2023-05-10T05:58:25;158.95;;;53.92;;
35969;SDS011;22448;51.298;6.430;2023-05-10T06:00:52;164.98;;;53.83;;
35969;SDS011;22448;51.298;6.430;2023-05-10T06:03:19;156.95;;;54.53;;
35969;SDS011;22448;51.298;6.430;2023-05-10T06:05:46;147.43;;;53.38;;
35969;SDS011;22448;51.298;6.430;2023-05-10T06:08:13;150.80;;;53.45;;
35969;SDS011;22448;51.298;6.430;2023-05-10T06:10:41;153.38;;;52.38;;
35969;SDS011;22448;51.298;6.430;2023-05-10T06:13:08;149.13;;;53.38;;
35969;SDS011;22448;51.298;6.430;2023-05-10T06:15:35;151.68;;;51.42;;
35969;SDS011;22448;51.298;6.430;2023-05-10T06:18:02;141.70;;;48.67;;
35969;SDS011;22448;51.298;6.430;2023-05-10T06:20:29;143.57;;;50.83;;
35969;SDS011;22448;51.298;6.430;2023-05-10T06:22:58;126.18;;;47.63;;
35969;SDS011;22448;51.298;6.430;2023-05-10T06:25:25;130.07;;;49.28;;
35969;SDS011;22448;51.298;6.430;2023-05-10T06:27:52;128.35;;;48.70;;
35969;SDS011;22448;51.298;6.430;2023-05-10T06:30:24;133.65;;;48.03;;
35969;SDS011;22448;51.298;6.430;2023-05-10T06:32:54;123.72;;;47.35;;
35969;SDS011;22448;51.298;6.430;2023-05-10T06:35:21;117.57;;;45.40;;
35969;SDS011;22448;51.298;6.430;2023-05-10T06:37:49;107.30;;;44.42;;
35969;SDS011;22448;51.298;6.430;2023-05-10T06:40:16;104.15;;;44.58;;
35969;SDS011;22448;51.298;6.430;2023-05-10T06:42:44;108.53;;;43.70;;
35969;SDS011;22448;51.298;6.430;2023-05-10T06:45:12;100.68;;;41.00;;
35969;SDS011;22448;51.298;6.430;2023-05-10T06:47:41;91.80;;;41.05;;
35969;SDS011;22448;51.298;6.430;2023-05-10T06:50:09;97.85;;;40.63;;
35969;SDS011;22448;51.298;6.430;2023-05-10T06:52:37;109.97;;;45.10;;
35969;SDS011;22448;51.298;6.430;2023-05-10T06:55:05;115.28;;;45.83;;
35969;SDS011;22448;51.298;6.430;2023-05-10T06:57:32;119.78;;;45.72;;
35969;SDS011;22448;51.298;6.430;2023-05-10T06:59:59;118.18;;;47.20;;
35969;SDS011;22448;51.298;6.430;2023-05-10T07:02:26;119.82;;;46.33;;
35969;SDS011;22448;51.298;6.430;2023-05-10T07:04:53;126.97;;;50.35;;
35969;SDS011;22448;51.298;6.430;2023-05-10T07:07:21;128.88;;;52.35;;
35969;SDS011;22448;51.298;6.430;2023-05-10T07:09:48;136.60;;;51.88;;
35969;SDS011;22448;51.298;6.430;2023-05-10T07:12:16;144.73;;;54.05;;
35969;SDS011;22448;51.298;6.430;2023-05-10T07:14:43;124.93;;;53.47;;
35969;SDS011;22448;51.298;6.430;2023-05-10T07:17:10;112.03;;;50.97;;
35969;SDS011;22448;51.298;6.430;2023-05-10T07:19:37;121.90;;;51.83;;
35969;SDS011;22448;51.298;6.430;2023-05-10T07:22:05;107.78;;;49.30;;
35969;SDS011;22448;51.298;6.430;2023-05-10T07:24:32;107.10;;;48.60;;
35969;SDS011;22448;51.298;6.430;2023-05-10T07:26:59;102.53;;;47.28;;
35969;SDS011;22448;51.298;6.430;2023-05-10T07:29:26;97.30;;;45.58;;
35969;SDS011;22448;51.298;6.430;2023-05-10T07:31:53;106.53;;;48.22;;
35969;SDS011;22448;51.298;6.430;2023-05-10T07:34:24;95.93;;;45.53;;
35969;SDS011;22448;51.298;6.430;2023-05-10T07:36:51;98.18;;;46.25;;
35969;SDS011;22448;51.298;6.430;2023-05-10T07:39:19;98.03;;;47.38;;
35969;SDS011;22448;51.298;6.430;2023-05-10T07:41:53;97.45;;;46.03;;
35969;SDS011;22448;51.298;6.430;2023-05-10T07:44:23;87.95;;;43.25;;
35969;SDS011;22448;51.298;6.430;2023-05-10T07:46:50;88.82;;;44.13;;
35969;SDS011;22448;51.298;6.430;2023-05-10T07:49:17;95.95;;;46.00;;
35969;SDS011;22448;51.298;6.430;2023-05-10T07:51:44;80.78;;;42.95;;
35969;SDS011;22448;51.298;6.430;2023-05-10T07:54:11;101.50;;;48.33;;
35969;SDS011;22448;51.298;6.430;2023-05-10T07:56:39;87.20;;;44.50;;
35969;SDS011;22448;51.298;6.430;2023-05-10T07:59:08;90.30;;;45.17;;
35969;SDS011;22448;51.298;6.430;2023-05-10T08:01:38;84.38;;;45.15;;
35969;SDS011;22448;51.298;6.430;2023-05-10T08:04:05;84.65;;;42.45;;
35969;SDS011;22448;51.298;6.430;2023-05-10T08:06:32;88.03;;;42.47;;
35969;SDS011;22448;51.298;6.430;2023-05-10T08:08:59;75.15;;;41.10;;
35969;SDS011;22448;51.298;6.430;2023-05-10T08:11:26;75.65;;;37.45;;
35969;SDS011;22448;51.298;6.430;2023-05-10T08:13:58;66.30;;;37.17;;
35969;SDS011;22448;51.298;6.430;2023-05-10T08:16:25;68.40;;;34.42;;
35969;SDS011;22448;51.298;6.430;2023-05-10T08:18:52;72.60;;;37.28;;
35969;SDS011;22448;51.298;6.430;2023-05-10T08:21:21;62.13;;;35.10;;
35969;SDS011;22448;51.298;6.430;2023-05-10T08:23:48;62.65;;;36.47;;
35969;SDS011;22448;51.298;6.430;2023-05-10T08:26:15;64.85;;;36.60;;
35969;SDS011;22448;51.298;6.430;2023-05-10T08:28:42;60.63;;;34.38;;
35969;SDS011;22448;51.298;6.430;2023-05-10T08:31:09;63.70;;;32.50;;
35969;SDS011;22448;51.298;6.430;2023-05-10T08:33:36;55.75;;;31.55;;
35969;SDS011;22448;51.298;6.430;2023-05-10T08:36:03;55.47;;;29.77;;
35969;SDS011;22448;51.298;6.430;2023-05-10T08:38:30;46.00;;;27.45;;
35969;SDS011;22448;51.298;6.430;2023-05-10T08:40:57;46.53;;;27.17;;
35969;SDS011;22448;51.298;6.430;2023-05-10T08:43:28;51.42;;;27.50;;
35969;SDS011;22448;51.298;6.430;2023-05-10T08:45:59;43.90;;;25.27;;
35969;SDS011;22448;51.298;6.430;2023-05-10T08:48:29;43.40;;;26.55;;
35969;SDS011;22448;51.298;6.430;2023-05-10T08:50:58;45.50;;;26.75;;
35969;SDS011;22448;51.298;6.430;2023-05-10T08:53:26;42.50;;;25.85;;
35969;SDS011;22448;51.298;6.430;2023-05-10T08:55:55;44.50;;;27.33;;
35969;SDS011;22448;51.298;6.430;2023-05-10T08:58:22;48.03;;;27.20;;
35969;SDS011;22448;51.298;6.430;2023-05-10T09:00:49;48.38;;;27.38;;
35969;SDS011;22448;51.298;6.430;2023-05-10T09:03:19;45.85;;;26.77;;
35969;SDS011;22448;51.298;6.430;2023-05-10T09:05:46;51.33;;;26.85;;
35969;SDS011;22448;51.298;6.430;2023-05-10T09:08:15;52.53;;;25.48;;
35969;SDS011;22448;51.298;6.430;2023-05-10T09:10:45;41.30;;;24.95;;
35969;SDS011;22448;51.298;6.430;2023-05-10T09:13:14;46.75;;;25.27;;
35969;SDS011;22448;51.298;6.430;2023-05-10T09:15:43;49.15;;;27.10;;
35969;SDS011;22448;51.298;6.430;2023-05-10T09:18:11;45.70;;;27.13;;
35969;SDS011;22448;51.298;6.430;2023-05-10T09:20:39;39.25;;;25.58;;
35969;SDS011;22448;51.298;6.430;2023-05-10T09:23:06;49.22;;;28.17;;
35969;SDS011;22448;51.298;6.430;2023-05-10T09:25:33;47.45;;;27.30;;
35969;SDS011;22448;51.298;6.430;2023-05-10T09:28:01;43.50;;;27.33;;
35969;SDS011;22448;51.298;6.430;2023-05-10T09:30:32;44.65;;;26.58;;
35969;SDS011;22448;51.298;6.430;2023-05-10T09:32:59;44.10;;;25.13;;
35969;SDS011;22448;51.298;6.430;2023-05-10T09:35:28;43.85;;;25.58;;
35969;SDS011;22448;51.298;6.430;2023-05-10T09:38:00;46.08;;;25.55;;
35969;SDS011;22448;51.298;6.430;2023-05-10T09:40:29;40.22;;;25.58;;
35969;SDS011;22448;51.298;6.430;2023-05-10T09:42:58;49.85;;;27.88;;
35969;SDS011;22448;51.298;6.430;2023-05-10T09:45:26;46.00;;;26.52;;
35969;SDS011;22448;51.298;6.430;2023-05-10T09:47:55;51.85;;;28.00;;
35969;SDS011;22448;51.298;6.430;2023-05-10T09:50:22;48.38;;;27.33;;
35969;SDS011;22448;51.298;6.430;2023-05-10T09:55:25;45.40;;;27.40;;
35969;SDS011;22448;51.298;6.430;2023-05-10T09:58:00;49.20;;;28.38;;
35969;SDS011;22448;51.298;6.430;2023-05-10T10:00:27;53.80;;;29.63;;
35969;SDS011;22448;51.298;6.430;2023-05-10T10:05:28;52.05;;;27.88;;
35969;SDS011;22448;51.298;6.430;2023-05-10T10:07:56;44.72;;;26.65;;
35969;SDS011;22448;51.298;6.430;2023-05-10T10:10:24;41.47;;;25.27;;
35969;SDS011;22448;51.298;6.430;2023-05-10T10:12:52;47.70;;;26.77;;
35969;SDS011;22448;51.298;6.430;2023-05-10T10:15:23;46.63;;;25.20;;
35969;SDS011;22448;51.298;6.430;2023-05-10T10:17:51;44.40;;;25.52;;
35969;SDS011;22448;51.298;6.430;2023-05-10T10:20:20;42.35;;;24.48;;
35969;SDS011;22448;51.298;6.430;2023-05-10T10:22:49;44.97;;;24.83;;
35969;SDS011;22448;51.298;6.430;2023-05-10T10:25:16;43.85;;;23.27;;
35969;SDS011;22448;51.298;6.430;2023-05-10T10:32:59;39.95;;;23.30;;
35969;SDS011;22448;51.298;6.430;2023-05-10T10:35:54;39.10;;;24.02;;
35969;SDS011;22448;51.298;6.430;2023-05-10T10:38:24;40.42;;;25.55;;
35969;SDS011;22448;51.298;6.430;2023-05-10T10:41:01;47.03;;;26.90;;
35969;SDS011;22448;51.298;6.430;2023-05-10T10:43:29;45.47;;;26.38;;
35969;SDS011;22448;51.298;6.430;2023-05-10T10:48:43;35.55;;;24.15;;
35969;SDS011;22448;51.298;6.430;2023-05-10T10:51:14;36.08;;;23.48;;
35969;SDS011;22448;51.298;6.430;2023-05-10T10:53:41;34.25;;;22.08;;
35969;SDS011;22448;51.298;6.430;2023-05-10T10:56:10;30.48;;;21.92;;
35969;SDS011;22448;51.298;6.430;2023-05-10T10:58:42;28.50;;;20.65;;
35969;SDS011;22448;51.298;6.430;2023-05-10T11:01:18;35.28;;;19.90;;
35969;SDS011;22448;51.298;6.430;2023-05-10T11:06:34;29.33;;;19.85;;
35969;SDS011;22448;51.298;6.430;2023-05-10T11:09:08;30.67;;;20.63;;
35969;SDS011;22448;51.298;6.430;2023-05-10T11:11:48;32.60;;;21.50;;
35969;SDS011;22448;51.298;6.430;2023-05-10T11:14:21;33.95;;;20.23;;
35969;SDS011;22448;51.298;6.430;2023-05-10T11:16:48;36.60;;;20.27;;
35969;SDS011;22448;51.298;6.430;2023-05-10T11:19:16;27.17;;;18.77;;
35969;SDS011;22448;51.298;6.430;2023-05-10T11:21:48;32.35;;;17.95;;
35969;SDS011;22448;51.298;6.430;2023-05-10T11:24:17;28.55;;;17.75;;
35969;SDS011;22448;51.298;6.430;2023-05-10T11:26:46;27.48;;;18.05;;
35969;SDS011;22448;51.298;6.430;2023-05-10T11:29:16;25.25;;;16.63;;
35969;SDS011;22448;51.298;6.430;2023-05-10T11:31:43;26.02;;;16.33;;
35969;SDS011;22448;51.298;6.430;2023-05-10T11:34:24;24.38;;;16.45;;
35969;SDS011;22448;51.298;6.430;2023-05-10T11:36:52;28.23;;;16.65;;
35969;SDS011;22448;51.298;6.430;2023-05-10T11:39:21;23.55;;;16.70;;
35969;SDS011;22448;51.298;6.430;2023-05-10T11:41:48;27.48;;;17.90;;
35969;SDS011;22448;51.298;6.430;2023-05-10T11:44:15;22.05;;;17.08;;
35969;SDS011;22448;51.298;6.430;2023-05-10T11:46:43;23.60;;;17.20;;
35969;SDS011;22448;51.298;6.430;2023-05-10T11:49:10;28.80;;;17.50;;
35969;SDS011;22448;51.298;6.430;2023-05-10T11:51:38;30.92;;;17.85;;
35969;SDS011;22448;51.298;6.430;2023-05-10T11:54:09;23.67;;;17.05;;
35969;SDS011;22448;51.298;6.430;2023-05-10T11:56:37;26.35;;;16.83;;
35969;SDS011;22448;51.298;6.430;2023-05-10T11:59:05;26.55;;;16.40;;
35969;SDS011;22448;51.298;6.430;2023-05-10T12:01:34;26.35;;;18.25;;
35969;SDS011;22448;51.298;6.430;2023-05-10T12:04:01;28.77;;;19.30;;
35969;SDS011;22448;51.298;6.430;2023-05-10T12:06:32;29.00;;;18.05;;
35969;SDS011;22448;51.298;6.430;2023-05-10T12:09:07;26.20;;;17.13;;
35969;SDS011;22448;51.298;6.430;2023-05-10T12:11:37;24.15;;;17.77;;
35969;SDS011;22448;51.298;6.430;2023-05-10T12:14:09;29.98;;;18.35;;
35969;SDS011;22448;51.298;6.430;2023-05-10T12:16:36;27.38;;;18.48;;
35969;SDS011;22448;51.298;6.430;2023-05-10T12:19:04;30.25;;;19.13;;
35969;SDS011;22448;51.298;6.430;2023-05-10T12:21:32;27.25;;;19.30;;
35969;SDS011;22448;51.298;6.430;2023-05-10T12:24:01;29.58;;;20.75;;
35969;SDS011;22448;51.298;6.430;2023-05-10T12:26:29;30.33;;;21.50;;
35969;SDS011;22448;51.298;6.430;2023-05-10T12:29:12;36.05;;;23.48;;
35969;SDS011;22448;51.298;6.430;2023-05-10T12:31:56;33.72;;;22.25;;
35969;SDS011;22448;51.298;6.430;2023-05-10T12:34:32;39.60;;;23.27;;
35969;SDS011;22448;51.298;6.430;2023-05-10T12:37:01;37.03;;;25.15;;
35969;SDS011;22448;51.298;6.430;2023-05-10T12:39:39;39.42;;;27.30;;
35969;SDS011;22448;51.298;6.430;2023-05-10T12:42:08;42.17;;;26.80;;
35969;SDS011;22448;51.298;6.430;2023-05-10T12:44:35;37.67;;;25.67;;
35969;SDS011;22448;51.298;6.430;2023-05-10T12:47:02;40.45;;;27.05;;
35969;SDS011;22448;51.298;6.430;2023-05-10T12:49:29;39.17;;;27.40;;
35969;SDS011;22448;51.298;6.430;2023-05-10T12:51:56;37.63;;;25.73;;
35969;SDS011;22448;51.298;6.430;2023-05-10T12:54:23;38.03;;;25.10;;
35969;SDS011;22448;51.298;6.430;2023-05-10T12:56:51;32.00;;;23.85;;
35969;SDS011;22448;51.298;6.430;2023-05-10T12:59:18;34.45;;;23.45;;
35969;SDS011;22448;51.298;6.430;2023-05-10T13:01:45;33.53;;;22.63;;
35969;SDS011;22448;51.298;6.430;2023-05-10T13:04:12;37.08;;;23.23;;
35969;SDS011;22448;51.298;6.430;2023-05-10T13:06:39;33.33;;;22.67;;
35969;SDS011;22448;51.298;6.430;2023-05-10T13:09:06;35.35;;;24.30;;
35969;SDS011;22448;51.298;6.430;2023-05-10T13:11:33;37.85;;;24.45;;
35969;SDS011;22448;51.298;6.430;2023-05-10T13:14:00;34.50;;;23.33;;
35969;SDS011;22448;51.298;6.430;2023-05-10T13:16:29;31.80;;;21.90;;
35969;SDS011;22448;51.298;6.430;2023-05-10T13:18:56;33.55;;;22.48;;
35969;SDS011;22448;51.298;6.430;2023-05-10T13:21:24;28.73;;;20.85;;
35969;SDS011;22448;51.298;6.430;2023-05-10T13:23:52;32.75;;;19.23;;
35969;SDS011;22448;51.298;6.430;2023-05-10T13:26:19;28.70;;;19.67;;
35969;SDS011;22448;51.298;6.430;2023-05-10T13:28:46;28.88;;;19.95;;
35969;SDS011;22448;51.298;6.430;2023-05-10T13:31:15;28.65;;;21.27;;
35969;SDS011;22448;51.298;6.430;2023-05-10T13:33:42;28.83;;;21.02;;
35969;SDS011;22448;51.298;6.430;2023-05-10T13:36:09;28.25;;;20.70;;
35969;SDS011;22448;51.298;6.430;2023-05-10T13:38:36;30.45;;;19.15;;
35969;SDS011;22448;51.298;6.430;2023-05-10T13:41:03;29.00;;;19.75;;
35969;SDS011;22448;51.298;6.430;2023-05-10T13:43:31;28.52;;;18.58;;
35969;SDS011;22448;51.298;6.430;2023-05-10T13:45:58;24.45;;;18.05;;
35969;SDS011;22448;51.298;6.430;2023-05-10T13:48:25;25.65;;;17.38;;
35969;SDS011;22448;51.298;6.430;2023-05-10T13:50:51;26.33;;;18.10;;
35969;SDS011;22448;51.298;6.430;2023-05-10T13:53:18;26.63;;;19.50;;
35969;SDS011;22448;51.298;6.430;2023-05-10T13:55:45;22.65;;;17.77;;
35969;SDS011;22448;51.298;6.430;2023-05-10T13:58:13;21.60;;;16.60;;
35969;SDS011;22448;51.298;6.430;2023-05-10T14:00:40;23.10;;;16.05;;
35969;SDS011;22448;51.298;6.430;2023-05-10T14:03:07;24.85;;;16.90;;
35969;SDS011;22448;51.298;6.430;2023-05-10T14:05:37;24.05;;;15.00;;
35969;SDS011;22448;51.298;6.430;2023-05-10T14:08:04;21.00;;;14.70;;
35969;SDS011;22448;51.298;6.430;2023-05-10T14:10:31;22.00;;;14.30;;
35969;SDS011;22448;51.298;6.430;2023-05-10T14:12:58;18.83;;;13.30;;
35969;SDS011;22448;51.298;6.430;2023-05-10T14:15:25;22.42;;;11.90;;
35969;SDS011;22448;51.298;6.430;2023-05-10T14:17:52;15.80;;;11.00;;
35969;SDS011;22448;51.298;6.430;2023-05-10T14:20:19;16.38;;;12.13;;
35969;SDS011;22448;51.298;6.430;2023-05-10T14:22:46;15.93;;;11.35;;
35969;SDS011;22448;51.298;6.430;2023-05-10T14:25:13;15.77;;;10.25;;
35969;SDS011;22448;51.298;6.430;2023-05-10T14:27:41;14.70;;;11.02;;
35969;SDS011;22448;51.298;6.430;2023-05-10T14:30:09;14.93;;;11.23;;
35969;SDS011;22448;51.298;6.430;2023-05-10T14:32:36;15.32;;;11.10;;
35969;SDS011;22448;51.298;6.430;2023-05-10T14:35:03;18.15;;;10.55;;
35969;SDS011;22448;51.298;6.430;2023-05-10T14:37:32;15.35;;;10.98;;
35969;SDS011;22448;51.298;6.430;2023-05-10T14:39:59;14.43;;;10.77;;
35969;SDS011;22448;51.298;6.430;2023-05-10T14:42:26;17.55;;;12.07;;
35969;SDS011;22448;51.298;6.430;2023-05-10T14:44:54;16.48;;;12.30;;
35969;SDS011;22448;51.298;6.430;2023-05-10T14:47:21;20.98;;;12.93;;
35969;SDS011;22448;51.298;6.430;2023-05-10T14:49:48;18.67;;;12.57;;
35969;SDS011;22448;51.298;6.430;2023-05-10T14:52:15;21.80;;;12.20;;
35969;SDS011;22448;51.298;6.430;2023-05-10T14:54:43;17.88;;;12.90;;
35969;SDS011;22448;51.298;6.430;2023-05-10T14:57:10;18.67;;;12.77;;
35969;SDS011;22448;51.298;6.430;2023-05-10T14:59:37;17.17;;;13.60;;
35969;SDS011;22448;51.298;6.430;2023-05-10T15:02:04;22.52;;;14.43;;
35969;SDS011;22448;51.298;6.430;2023-05-10T15:04:32;15.70;;;11.52;;